createdAt,value
2023-03-31T00:01:47.412Z,97973.72
2023-03-31T00:06:57.534Z,97975.34
2023-03-31T00:12:02.674Z,97974.06
2023-03-31T00:17:08.955Z,97951.31
2023-03-31T00:22:19.067Z,97968.34
2023-03-31T00:27:24.325Z,97960.06
2023-03-31T00:32:29.602Z,97953.22
2023-03-31T00:37:38.123Z,97951.63
2023-03-31T00:42:46.905Z,97949.59
2023-03-31T00:47:56.285Z,97936.44
2023-03-31T00:53:11.169Z,97926.38
2023-03-31T00:58:20.546Z,97916.19
2023-03-31T01:03:26.695Z,97900.66
2023-03-31T01:08:36.934Z,97896.63
2023-03-31T01:13:44.321Z,97890.53
2023-03-31T01:18:50.268Z,97888.50
2023-03-31T01:24:32.150Z,97882.41
2023-03-31T01:30:13.097Z,97878.19
2023-03-31T01:35:43.858Z,97859.47
2023-03-31T01:41:06.055Z,97853.47
2023-03-31T01:46:19.324Z,97856.38
2023-03-31T01:51:34.935Z,97846.88
2023-03-31T01:56:47.784Z,97847.88
2023-03-31T02:01:56.998Z,97839.34
2023-03-31T02:07:07.290Z,97823.13
2023-03-31T02:12:16.542Z,97820.44
2023-03-31T02:17:30.981Z,97815.56
2023-03-31T02:22:40.625Z,97809.25
2023-03-31T02:27:53.028Z,97794.69
2023-03-31T02:32:58.284Z,97800.22
2023-03-31T02:38:06.944Z,97796.50
2023-03-31T02:43:17.201Z,97779.81
2023-03-31T02:48:31.389Z,97772.16
2023-03-31T02:53:46.625Z,97779.56
2023-03-31T02:59:09.730Z,97762.44
2023-03-31T03:04:34.277Z,97762.50
2023-03-31T03:09:48.246Z,97750.25
2023-03-31T03:15:03.411Z,97757.69
2023-03-31T03:20:14.141Z,97756.53
2023-03-31T03:25:21.515Z,97759.50
2023-03-31T03:30:30.710Z,97747.31
2023-03-31T03:35:39.433Z,97740.06
2023-03-31T03:40:47.645Z,97748.59
2023-03-31T03:45:56.757Z,97733.88
2023-03-31T03:51:06.715Z,97725.00
2023-03-31T03:56:11.945Z,97723.56
2023-03-31T04:01:21.248Z,97723.03
2023-03-31T04:06:33.722Z,97709.41
2023-03-31T04:11:41.331Z,97700.56
2023-03-31T04:16:50.046Z,97687.56
2023-03-31T04:21:59.874Z,97691.69
2023-03-31T04:27:07.469Z,97676.44
2023-03-31T04:32:21.806Z,97675.06
2023-03-31T04:37:35.896Z,97673.28
2023-03-31T04:42:41.278Z,97675.50
2023-03-31T04:47:50.106Z,97654.34
2023-03-31T04:52:57.522Z,97650.31
2023-03-31T04:58:03.028Z,97626.06
2023-03-31T05:03:11.668Z,97630.31
2023-03-31T05:08:17.066Z,97623.44
2023-03-31T05:13:25.610Z,97627.91
2023-03-31T05:18:33.582Z,97619.78
2023-03-31T05:23:38.777Z,97613.56
2023-03-31T05:28:44.641Z,97609.34
2023-03-31T05:33:52.606Z,97593.09
2023-03-31T05:38:57.719Z,97584.88
2023-03-31T05:44:03.051Z,97579.31
2023-03-31T05:49:16.168Z,97556.66
2023-03-31T05:54:21.240Z,97548.22
2023-03-31T05:59:26.601Z,97542.84
2023-03-31T06:04:34.652Z,97516.78
2023-03-31T06:09:41.990Z,97523.50
2023-03-31T06:14:46.986Z,97516.22
2023-03-31T06:19:58.477Z,97504.91
2023-03-31T06:25:04.632Z,97495.69
2023-03-31T06:30:11.761Z,97498.16
2023-03-31T06:35:20.809Z,97499.31
2023-03-31T06:40:27.400Z,97492.19
2023-03-31T06:45:32.507Z,97487.03
2023-03-31T06:50:41.514Z,97472.06
2023-03-31T06:55:46.653Z,97471.22
2023-03-31T07:00:53.010Z,97470.44
2023-03-31T07:06:05.242Z,97475.06
2023-03-31T07:11:12.602Z,97455.19
2023-03-31T07:16:18.012Z,97452.13
2023-03-31T07:21:26.520Z,97444.16
2023-03-31T07:26:32.194Z,97448.66
2023-03-31T07:31:40.318Z,97448.56
2023-03-31T07:36:50.422Z,97440.34
2023-03-31T07:41:55.585Z,97443.78
2023-03-31T07:47:04.635Z,97426.22
2023-03-31T07:52:12.322Z,97403.94
2023-03-31T07:57:20.102Z,97391.38
2023-03-31T08:02:25.569Z,97395.81
2023-03-31T08:07:36.368Z,97385.66
2023-03-31T08:12:44.300Z,97368.66
2023-03-31T08:17:53.804Z,97380.69
2023-03-31T08:23:09.970Z,97372.44
2023-03-31T08:28:15.134Z,97384.25
2023-03-31T08:33:20.983Z,97384.06
2023-03-31T08:38:30.371Z,97375.63
2023-03-31T08:43:42.559Z,97363.59
2023-03-31T08:48:54.438Z,97375.84
2023-03-31T08:54:08.248Z,97376.84
2023-03-31T08:59:23.441Z,97370.25
2023-03-31T09:04:54.137Z,97373.59
2023-03-31T09:10:14.090Z,97356.84
2023-03-31T09:15:29.558Z,97347.25
2023-03-31T09:20:40.026Z,97340.16
2023-03-31T09:25:49.212Z,97339.34
2023-03-31T09:30:57.710Z,97320.63
2023-03-31T09:36:03.603Z,97319.19
2023-03-31T09:41:13.024Z,97300.94
2023-03-31T09:46:22.315Z,97289.81
2023-03-31T09:51:32.842Z,97288.31
2023-03-31T09:56:50.677Z,97276.06
2023-03-31T10:02:00.300Z,97267.50
2023-03-31T10:07:08.329Z,97266.69
2023-03-31T10:12:21.659Z,97262.06
2023-03-31T10:17:34.026Z,97263.63
2023-03-31T10:22:48.311Z,97257.94
2023-03-31T10:28:02.947Z,97259.09
2023-03-31T10:38:30.215Z,97232.53
2023-03-31T10:43:43.224Z,97228.28
2023-03-31T10:48:54.642Z,97225.22
2023-03-31T10:54:05.148Z,97209.50
2023-03-31T10:59:36.553Z,97199.88
2023-03-31T11:04:51.187Z,97184.16
2023-03-31T11:10:06.329Z,97184.31
2023-03-31T11:15:24.250Z,97186.56
2023-03-31T11:20:37.194Z,97172.78
2023-03-31T11:25:49.664Z,97174.25
2023-03-31T11:31:06.923Z,97179.91
2023-03-31T11:36:26.919Z,97170.78
2023-03-31T11:41:38.395Z,97148.97
2023-03-31T11:46:51.657Z,97151.97
2023-03-31T11:51:59.864Z,97130.41
2023-03-31T11:57:26.441Z,97124.19
2023-03-31T12:03:00.858Z,97113.47
2023-03-31T12:08:11.704Z,97114.78
2023-03-31T12:13:36.908Z,97099.72
2023-03-31T12:18:49.605Z,97097.78
2023-03-31T12:23:55.105Z,97103.94
2023-03-31T12:29:03.672Z,97093.38
2023-03-31T12:34:16.945Z,97081.81
2023-03-31T12:39:33.847Z,97065.66
2023-03-31T12:44:50.771Z,97056.66
2023-03-31T12:50:20.117Z,97053.09
2023-03-31T12:55:45.461Z,97048.09
2023-03-31T13:01:08.428Z,97032.38
2023-03-31T13:06:54.337Z,97029.44
2023-03-31T13:11:59.597Z,97016.75
2023-03-31T13:17:17.712Z,97000.78
2023-03-31T13:22:39.795Z,96991.03
2023-03-31T13:27:54.413Z,96993.00
2023-03-31T13:33:09.247Z,96974.34
2023-03-31T13:38:28.393Z,96967.41
2023-03-31T13:44:00.576Z,96959.25
2023-03-31T13:49:32.002Z,96955.22
2023-03-31T13:54:56.069Z,96939.53
2023-03-31T14:00:27.443Z,96927.97
2023-03-31T14:05:39.126Z,96925.38
2023-03-31T14:10:47.342Z,96933.25
2023-03-31T14:15:55.911Z,96922.44
2023-03-31T14:21:13.841Z,96928.78
2023-03-31T14:26:33.543Z,96933.97
2023-03-31T14:31:44.836Z,96913.69
2023-03-31T14:36:59.287Z,96931.56
2023-03-31T14:42:10.509Z,96925.19
2023-03-31T14:47:25.049Z,96928.28
2023-03-31T14:52:36.226Z,96910.31
2023-03-31T14:57:44.886Z,96912.63
2023-03-31T15:02:51.168Z,96912.34
2023-03-31T15:08:02.939Z,96901.78
2023-03-31T15:13:16.142Z,96912.75
2023-03-31T15:18:21.852Z,96900.25
2023-03-31T15:23:28.985Z,96908.75
2023-03-31T15:28:44.002Z,96914.00
2023-03-31T15:33:50.908Z,96913.00
2023-03-31T15:39:00.244Z,96910.09
2023-03-31T15:44:32.300Z,96903.66
2023-03-31T15:49:39.155Z,96888.75
2023-03-31T15:54:45.077Z,96893.47
2023-03-31T16:05:53.668Z,96887.78
2023-03-31T16:11:04.417Z,96881.44
2023-03-31T16:13:34.647Z,96889.38
2023-03-31T16:16:16.074Z,96878.66
2023-03-31T16:21:26.656Z,96884.25
2023-03-31T16:26:32.966Z,96891.16
2023-03-31T16:31:42.926Z,96873.38
2023-03-31T16:36:51.363Z,96870.72
2023-03-31T16:41:57.034Z,96887.84
2023-03-31T16:47:04.955Z,96889.50
2023-03-31T16:52:12.657Z,96907.91
2023-03-31T16:57:21.088Z,96907.56
2023-03-31T17:02:29.298Z,96909.78
2023-03-31T17:07:34.964Z,96926.84
2023-03-31T17:12:40.440Z,96915.81
2023-03-31T17:17:52.716Z,96930.06
2023-03-31T17:23:00.923Z,96916.91
2023-03-31T17:28:06.861Z,96919.78
2023-03-31T17:33:14.664Z,96915.59
2023-03-31T17:38:21.682Z,96928.63
2023-03-31T17:43:28.832Z,96926.97
2023-03-31T17:48:38.698Z,96929.00
2023-03-31T17:53:45.549Z,96934.31
2023-03-31T17:58:53.888Z,96949.50
2023-03-31T18:04:02.454Z,96954.22
2023-03-31T18:09:08.854Z,96945.41
2023-03-31T18:14:14.697Z,96952.28
2023-03-31T18:19:24.407Z,96965.00
2023-03-31T18:24:29.664Z,96955.06
2023-03-31T18:29:36.749Z,96962.19
2023-03-31T18:34:44.821Z,96969.28
2023-03-31T18:39:49.949Z,96969.03
2023-03-31T18:45:00.787Z,96975.66
2023-03-31T18:50:10.007Z,96981.94
2023-03-31T18:55:15.164Z,96969.06
2023-03-31T19:00:20.989Z,96970.28
2023-03-31T19:05:29.434Z,96976.69
2023-03-31T19:10:35.894Z,96978.16
2023-03-31T19:15:41.083Z,96980.38
2023-03-31T19:20:49.795Z,96982.72
2023-03-31T19:25:56.100Z,96972.50
2023-03-31T19:31:02.565Z,96990.94
2023-03-31T19:36:10.430Z,96977.47
2023-03-31T19:41:15.626Z,96978.38
2023-03-31T19:46:21.063Z,96979.94
2023-03-31T19:51:28.991Z,96990.50
2023-03-31T19:56:36.847Z,96977.66
2023-03-31T20:01:42.361Z,96986.31
2023-03-31T20:06:50.329Z,96980.38
2023-03-31T20:11:58.052Z,96982.78
2023-03-31T20:17:05.058Z,96978.94
2023-03-31T20:22:13.429Z,96982.44
2023-03-31T20:27:19.096Z,96977.66
2023-03-31T20:32:24.354Z,96983.22
2023-03-31T20:37:32.882Z,96980.38
2023-03-31T20:42:38.027Z,96976.91
2023-03-31T20:47:43.675Z,96994.66
2023-03-31T20:52:52.392Z,96986.94
2023-03-31T20:57:57.543Z,96992.78
2023-03-31T21:03:04.423Z,96997.47
2023-03-31T21:08:12.632Z,96987.72
2023-03-31T21:13:21.189Z,96996.81
2023-03-31T21:18:26.927Z,96987.28
2023-03-31T21:23:38.970Z,96998.47
2023-03-31T21:28:45.030Z,97007.22
2023-03-31T21:33:50.900Z,97004.88
2023-03-31T21:39:00.527Z,97007.31
2023-03-31T21:44:05.676Z,97002.78
2023-03-31T21:49:13.304Z,97006.22
2023-03-31T21:54:24.495Z,97004.72
2023-03-31T21:59:29.882Z,96996.03
2023-03-31T22:04:37.960Z,96996.16
2023-03-31T22:09:45.677Z,96997.63
2023-03-31T22:14:50.966Z,96991.94
2023-03-31T22:19:56.193Z,96994.81
2023-03-31T22:25:03.883Z,97004.56
2023-03-31T22:30:11.241Z,97006.91
2023-03-31T22:35:16.680Z,96993.38
2023-03-31T22:40:26.485Z,96997.69
2023-03-31T22:45:31.933Z,96995.38
2023-03-31T22:50:37.504Z,96985.31
2023-03-31T22:55:53.948Z,96995.09
2023-03-31T23:01:00.805Z,96996.38
2023-03-31T23:06:12.831Z,96980.88
2023-03-31T23:11:20.953Z,96985.31
2023-03-31T23:16:28.038Z,96989.00
2023-03-31T23:21:33.934Z,96981.31
2023-03-31T23:26:41.823Z,96993.38
2023-03-31T23:31:47.397Z,96978.25
2023-03-31T23:36:53.056Z,96983.09
2023-03-31T23:42:01.357Z,96976.81
2023-03-31T23:47:07.112Z,96987.34
2023-03-31T23:52:12.832Z,96985.47
2023-03-31T23:57:22.843Z,96979.72
